createdAt,value
2023-03-05T00:02:38.593Z,19.70
2023-03-05T00:05:28.500Z,20.47
2023-03-05T00:08:18.382Z,19.57
2023-03-05T00:11:09.069Z,19.03
2023-03-05T00:13:58.354Z,19.00
2023-03-05T00:16:47.913Z,20.53
2023-03-05T00:19:36.502Z,19.47
2023-03-05T00:22:27.436Z,20.50
2023-03-05T00:25:16.104Z,19.90
2023-03-05T00:28:06.595Z,19.70
2023-03-05T00:30:55.211Z,19.97
2023-03-05T00:33:44.296Z,20.13
2023-03-05T00:36:33.903Z,20.23
2023-03-05T00:39:23.825Z,19.47
2023-03-05T00:42:13.331Z,19.57
2023-03-05T00:45:03.302Z,19.00
2023-03-05T00:47:51.834Z,20.23
2023-03-05T00:50:41.148Z,19.03
2023-03-05T00:53:29.696Z,19.80
2023-03-05T00:56:20.615Z,19.70
2023-03-05T00:59:09.245Z,21.43
2023-03-05T01:01:58.882Z,19.53
2023-03-05T01:04:47.558Z,20.50
2023-03-05T01:07:37.589Z,20.43
2023-03-05T01:10:28.022Z,20.80
2023-03-05T01:13:17.895Z,22.00
2023-03-05T01:16:07.603Z,20.77
2023-03-05T01:18:56.132Z,22.10
2023-03-05T01:21:45.536Z,21.77
2023-03-05T01:24:34.251Z,22.00
2023-03-05T01:27:23.575Z,22.10
2023-03-05T01:30:16.565Z,22.40
2023-03-05T01:33:05.550Z,21.83
2023-03-05T01:35:54.156Z,22.53
2023-03-05T01:38:44.691Z,23.83
2023-03-05T01:41:34.412Z,23.43
2023-03-05T01:44:25.179Z,22.30
2023-03-05T01:47:16.875Z,23.80
2023-03-05T01:50:07.173Z,23.73
2023-03-05T01:53:02.946Z,23.80
2023-03-05T01:55:51.569Z,24.10
2023-03-05T01:58:41.416Z,24.93
2023-03-05T02:01:33.349Z,22.93
2023-03-05T02:04:31.233Z,24.17
2023-03-05T02:07:20.910Z,25.67
2023-03-05T02:10:18.622Z,25.27
2023-03-05T02:13:10.704Z,25.17
2023-03-05T02:16:01.739Z,25.30
2023-03-05T02:18:50.404Z,24.30
2023-03-05T02:21:43.647Z,25.40
2023-03-05T02:24:37.846Z,24.70
2023-03-05T02:27:35.432Z,25.27
2023-03-05T02:30:24.711Z,25.23
2023-03-05T02:33:16.344Z,25.60
2023-03-05T02:36:06.534Z,26.03
2023-03-05T02:38:59.115Z,25.13
2023-03-05T02:41:48.851Z,25.53
2023-03-05T02:44:37.527Z,25.53
2023-03-05T02:47:27.152Z,27.03
2023-03-05T02:50:16.032Z,26.90
2023-03-05T02:53:05.667Z,26.23
2023-03-05T02:55:56.306Z,26.10
2023-03-05T02:58:45.540Z,27.20
2023-03-05T03:01:34.339Z,26.57
2023-03-05T03:04:23.937Z,25.13
2023-03-05T03:07:12.639Z,26.20
2023-03-05T03:10:02.052Z,27.67
2023-03-05T03:12:52.275Z,25.23
2023-03-05T03:15:42.602Z,26.27
2023-03-05T03:18:31.681Z,27.63
2023-03-05T03:21:24.251Z,27.17
2023-03-05T03:24:12.911Z,27.13
2023-03-05T03:27:02.002Z,27.93
2023-03-05T03:29:52.860Z,27.13
2023-03-05T03:32:42.746Z,27.10
2023-03-05T03:35:32.179Z,26.60
2023-03-05T03:38:22.063Z,28.13
2023-03-05T03:41:11.274Z,26.87
2023-03-05T03:44:00.611Z,26.57
2023-03-05T03:46:52.274Z,27.07
2023-03-05T03:49:41.553Z,24.87
2023-03-05T03:52:30.228Z,26.43
2023-03-05T03:55:20.443Z,26.43
2023-03-05T03:58:09.850Z,28.10
2023-03-05T04:00:58.912Z,26.63
2023-03-05T04:03:50.227Z,26.43
2023-03-05T04:06:39.308Z,26.23
2023-03-05T04:09:27.978Z,27.27
2023-03-05T04:12:19.469Z,25.87
2023-03-05T04:15:09.470Z,27.03
2023-03-05T04:17:58.895Z,26.57
2023-03-05T04:20:49.282Z,26.03
2023-03-05T04:23:38.245Z,27.33
2023-03-05T04:26:28.495Z,25.27
2023-03-05T04:29:17.154Z,25.43
2023-03-05T04:32:07.117Z,26.57
2023-03-05T04:34:55.764Z,24.97
2023-03-05T04:37:47.559Z,26.30
2023-03-05T04:40:36.873Z,24.97
2023-03-05T04:43:26.043Z,25.77
2023-03-05T04:46:15.175Z,25.60
2023-03-05T04:49:04.008Z,25.27
2023-03-05T04:51:53.731Z,25.97
2023-03-05T04:54:45.702Z,25.70
2023-03-05T04:57:35.144Z,26.40
2023-03-05T05:00:23.868Z,24.87
2023-03-05T05:03:14.089Z,25.00
2023-03-05T05:06:03.061Z,26.93
2023-03-05T05:08:52.622Z,26.33
2023-03-05T05:11:43.130Z,26.00
2023-03-05T05:14:31.797Z,25.27
2023-03-05T05:17:21.380Z,25.87
2023-03-05T05:20:13.015Z,25.50
2023-03-05T05:23:03.179Z,26.47
2023-03-05T05:25:58.049Z,26.40
2023-03-05T05:28:49.444Z,26.43
2023-03-05T05:31:38.461Z,26.77
2023-03-05T05:34:27.365Z,25.50
2023-03-05T05:37:16.088Z,25.27
2023-03-05T05:40:07.015Z,25.07
2023-03-05T05:42:56.053Z,24.57
2023-03-05T05:45:46.634Z,27.23
2023-03-05T05:48:37.289Z,25.90
2023-03-05T05:51:26.656Z,25.80
2023-03-05T05:54:15.983Z,27.03
2023-03-05T05:57:05.272Z,25.07
2023-03-05T05:59:53.912Z,25.43
2023-03-05T06:02:45.028Z,25.47
2023-03-05T06:05:33.661Z,26.07
2023-03-05T06:08:23.322Z,24.63
2023-03-05T06:11:12.278Z,25.87
2023-03-05T06:14:03.180Z,24.63
2023-03-05T06:16:52.296Z,26.33
2023-03-05T06:19:42.750Z,26.17
2023-03-05T06:22:31.528Z,24.67
2023-03-05T06:25:24.646Z,26.00
2023-03-05T06:28:17.189Z,26.93
2023-03-05T06:31:13.016Z,25.63
2023-03-05T06:34:03.231Z,24.57
2023-03-05T06:36:55.872Z,25.13
2023-03-05T06:39:44.760Z,25.90
2023-03-05T06:42:35.294Z,25.33
2023-03-05T06:45:24.026Z,25.23
2023-03-05T06:48:14.162Z,26.33
2023-03-05T06:51:05.159Z,24.77
2023-03-05T06:53:56.675Z,25.00
2023-03-05T06:56:47.427Z,24.83
2023-03-05T06:59:36.511Z,26.90
2023-03-05T07:02:25.697Z,25.03
2023-03-05T07:05:14.621Z,25.07
2023-03-05T07:08:04.621Z,25.17
2023-03-05T07:10:55.217Z,25.50
2023-03-05T07:13:44.460Z,25.17
2023-03-05T07:16:35.229Z,26.83
2023-03-05T07:19:24.036Z,26.50
2023-03-05T07:22:12.668Z,26.40
2023-03-05T07:25:02.210Z,26.43
2023-03-05T07:27:52.622Z,25.20
2023-03-05T07:30:41.368Z,24.57
2023-03-05T07:33:30.203Z,26.27
2023-03-05T07:36:19.130Z,25.43
2023-03-05T07:39:07.948Z,24.23
2023-03-05T07:41:57.462Z,25.43
2023-03-05T07:44:53.091Z,24.70
2023-03-05T07:47:42.471Z,25.00
2023-03-05T07:50:32.992Z,25.47
2023-03-05T07:53:22.268Z,25.33
2023-03-05T07:56:11.249Z,25.47
2023-03-05T07:59:01.800Z,26.57
2023-03-05T08:01:51.809Z,26.10
2023-03-05T08:04:42.233Z,25.63
2023-03-05T08:07:31.374Z,25.73
2023-03-05T08:10:20.280Z,24.73
2023-03-05T08:13:09.582Z,25.47
2023-03-05T08:15:58.359Z,24.97
2023-03-05T08:18:49.109Z,25.03
2023-03-05T08:21:38.388Z,24.20
2023-03-05T08:24:29.699Z,27.30
2023-03-05T08:27:20.030Z,25.87
2023-03-05T08:30:12.378Z,24.67
2023-03-05T08:33:00.998Z,24.07
2023-03-05T08:35:51.467Z,26.07
2023-03-05T08:38:40.732Z,24.83
2023-03-05T08:41:29.563Z,24.20
2023-03-05T08:44:19.375Z,25.73
2023-03-05T08:47:08.180Z,25.53
2023-03-05T08:49:58.790Z,26.07
2023-03-05T08:52:49.162Z,25.27
2023-03-05T08:55:38.515Z,25.10
2023-03-05T08:58:27.838Z,24.50
2023-03-05T09:01:17.382Z,25.90
2023-03-05T09:04:06.101Z,25.00
2023-03-05T09:06:54.735Z,26.10
2023-03-05T09:09:44.818Z,23.87
2023-03-05T09:12:33.821Z,24.83
2023-03-05T09:15:22.992Z,25.73
2023-03-05T09:18:11.712Z,25.90
2023-03-05T09:21:05.898Z,26.63
2023-03-05T09:23:59.538Z,26.73
2023-03-05T09:26:49.731Z,26.13
2023-03-05T09:29:40.821Z,25.83
2023-03-05T09:32:31.559Z,26.10
2023-03-05T09:35:20.487Z,25.60
2023-03-05T09:38:09.144Z,25.97
2023-03-05T09:41:06.048Z,25.77
2023-03-05T09:44:06.096Z,25.17
2023-03-05T09:46:57.616Z,24.33
2023-03-05T09:49:58.027Z,25.17
2023-03-05T09:52:51.570Z,26.07
2023-03-05T09:55:44.140Z,25.87
2023-03-05T09:58:38.732Z,25.37
2023-03-05T10:01:36.533Z,26.13
2023-03-05T10:04:28.590Z,26.37
2023-03-05T10:07:22.372Z,27.30
2023-03-05T10:10:15.346Z,26.87
2023-03-05T10:13:16.454Z,26.63
2023-03-05T10:16:18.836Z,26.17
2023-03-05T10:19:16.021Z,25.40
2023-03-05T10:22:15.617Z,25.30
2023-03-05T10:25:16.481Z,25.20
2023-03-05T10:28:10.646Z,24.33
2023-03-05T10:31:12.609Z,26.37
2023-03-05T10:34:31.983Z,23.97
2023-03-05T10:37:47.101Z,25.90
2023-03-05T10:40:40.274Z,23.90
2023-03-05T10:43:38.486Z,23.93
2023-03-05T10:46:33.729Z,24.77
2023-03-05T10:49:29.472Z,24.33
2023-03-05T10:52:21.094Z,23.53
2023-03-05T10:55:15.577Z,23.77
2023-03-05T10:58:12.747Z,22.73
2023-03-05T11:01:05.334Z,21.87
2023-03-05T11:03:57.822Z,21.63
2023-03-05T11:06:47.919Z,21.67
2023-03-05T11:09:37.141Z,23.07
2023-03-05T11:12:28.245Z,24.90
2023-03-05T11:15:27.793Z,23.97
2023-03-05T11:18:24.451Z,24.13
2023-03-05T11:21:19.587Z,19.37
2023-03-05T11:24:14.888Z,21.00
2023-03-05T11:27:04.244Z,20.07
2023-03-05T11:29:53.884Z,20.57
2023-03-05T11:32:42.833Z,19.50
2023-03-05T11:35:34.380Z,18.63
2023-03-05T11:38:27.962Z,17.33
2023-03-05T11:41:21.884Z,16.50
2023-03-05T11:44:15.810Z,17.57
2023-03-05T11:47:16.070Z,19.33
2023-03-05T11:50:13.550Z,17.33
2023-03-05T11:53:07.408Z,16.60
2023-03-05T11:56:01.004Z,16.60
2023-03-05T11:58:55.880Z,15.93
2023-03-05T12:01:48.940Z,17.20
2023-03-05T12:04:37.811Z,15.80
2023-03-05T12:07:35.822Z,15.63
2023-03-05T12:10:26.046Z,16.43
2023-03-05T12:13:24.985Z,15.27
2023-03-05T12:16:25.805Z,14.87
2023-03-05T12:19:34.874Z,15.00
2023-03-05T12:22:25.734Z,14.97
2023-03-05T12:25:26.204Z,14.77
2023-03-05T12:28:17.170Z,14.53
2023-03-05T12:31:06.956Z,14.60
2023-03-05T12:33:58.035Z,14.87
2023-03-05T12:36:46.692Z,14.97
2023-03-05T12:39:50.076Z,15.10
2023-03-05T12:42:47.976Z,14.77
2023-03-05T12:45:41.426Z,14.67
2023-03-05T12:48:46.126Z,14.47
2023-03-05T12:51:39.319Z,14.83
2023-03-05T12:54:33.186Z,15.33
2023-03-05T12:57:26.462Z,16.30
2023-03-05T13:00:21.662Z,16.13
2023-03-05T13:03:15.924Z,15.90
2023-03-05T13:06:07.150Z,17.03
2023-03-05T13:09:03.151Z,17.83
2023-03-05T13:11:55.566Z,14.80
2023-03-05T13:14:45.928Z,16.27
2023-03-05T13:17:39.550Z,16.60
2023-03-05T13:20:34.325Z,15.17
2023-03-05T13:23:25.182Z,14.97
2023-03-05T13:26:19.119Z,13.87
2023-03-05T13:29:11.388Z,15.33
2023-03-05T13:32:03.841Z,15.00
2023-03-05T13:34:55.496Z,13.90
2023-03-05T13:37:45.270Z,14.37
2023-03-05T13:40:35.237Z,14.30
2023-03-05T13:43:25.661Z,13.90
2023-03-05T13:46:15.049Z,14.57
2023-03-05T13:49:23.620Z,13.23
2023-03-05T13:52:16.833Z,13.20
2023-03-05T13:55:13.133Z,12.83
2023-03-05T13:58:02.706Z,12.87
2023-03-05T14:01:04.543Z,13.33
2023-03-05T14:03:56.456Z,12.00
2023-03-05T14:06:50.538Z,12.20
2023-03-05T14:09:49.994Z,11.63
2023-03-05T14:12:43.029Z,13.60
2023-03-05T14:15:35.351Z,12.73
2023-03-05T14:18:25.340Z,13.57
2023-03-05T14:21:14.554Z,11.73
2023-03-05T14:24:15.394Z,13.80
2023-03-05T14:27:09.133Z,13.40
2023-03-05T14:29:57.845Z,12.97
2023-03-05T14:32:47.619Z,12.57
2023-03-05T14:35:37.856Z,15.20
2023-03-05T14:38:31.538Z,13.20
2023-03-05T14:41:22.793Z,13.30
2023-03-05T14:44:17.121Z,11.47
2023-03-05T14:47:05.791Z,12.73
2023-03-05T14:49:54.959Z,12.70
2023-03-05T14:52:46.170Z,11.73
2023-03-05T14:55:38.228Z,11.67
2023-03-05T14:58:32.188Z,8.50
2023-03-05T15:01:20.825Z,8.93
2023-03-05T15:04:09.853Z,8.73
2023-03-05T15:06:59.570Z,9.73
2023-03-05T15:09:49.819Z,8.80
2023-03-05T15:12:39.070Z,8.57
2023-03-05T15:15:28.303Z,8.90
2023-03-05T15:18:20.002Z,7.63
2023-03-05T15:21:08.622Z,9.13
2023-03-05T15:23:58.052Z,8.90
2023-03-05T15:26:50.138Z,9.30
2023-03-05T15:29:40.245Z,13.13
2023-03-05T15:32:30.580Z,10.93
2023-03-05T15:35:19.411Z,8.27
2023-03-05T15:38:08.173Z,9.83
2023-03-05T15:41:01.271Z,9.33
2023-03-05T15:43:51.746Z,16.80
2023-03-05T15:46:41.757Z,8.90
2023-03-05T15:49:30.829Z,8.50
2023-03-05T15:52:19.910Z,10.93
2023-03-05T15:55:09.829Z,10.47
2023-03-05T15:57:59.498Z,8.47
2023-03-05T16:00:49.593Z,8.80
2023-03-05T16:03:39.937Z,10.27
2023-03-05T16:06:56.952Z,14.67
2023-03-05T16:10:01.963Z,12.20
2023-03-05T16:12:56.877Z,9.10
2023-03-05T16:15:53.225Z,13.37
2023-03-05T16:18:45.882Z,9.43
2023-03-05T16:21:35.778Z,12.93
2023-03-05T16:24:24.920Z,12.70
2023-03-05T16:27:13.730Z,12.27
2023-03-05T16:30:06.307Z,11.83
2023-03-05T16:32:55.984Z,11.77
2023-03-05T16:35:46.126Z,11.07
2023-03-05T16:38:35.529Z,9.73
2023-03-05T16:41:27.230Z,9.03
2023-03-05T16:44:15.987Z,10.90
2023-03-05T16:47:04.929Z,12.33
2023-03-05T16:49:55.323Z,9.07
2023-03-05T16:52:52.360Z,11.07
2023-03-05T16:55:41.788Z,11.57
2023-03-05T16:58:31.007Z,12.87
2023-03-05T17:01:22.009Z,11.37
2023-03-05T17:04:16.810Z,11.93
2023-03-05T17:07:06.514Z,10.73
2023-03-05T17:10:02.685Z,12.07
2023-03-05T17:12:53.216Z,10.30
2023-03-05T17:15:47.991Z,10.23
2023-03-05T17:18:46.641Z,10.13
2023-03-05T17:21:46.461Z,10.40
2023-03-05T17:24:38.574Z,10.57
2023-03-05T17:27:29.593Z,9.80
2023-03-05T17:30:23.234Z,9.73
2023-03-05T17:33:13.033Z,10.30
2023-03-05T17:36:02.888Z,10.53
2023-03-05T17:38:52.439Z,11.47
2023-03-05T17:41:41.579Z,11.43
2023-03-05T17:44:34.139Z,11.67
2023-03-05T17:47:24.065Z,12.63
2023-03-05T17:50:15.456Z,11.97
2023-03-05T17:53:05.254Z,13.63
2023-03-05T17:55:56.396Z,13.67
2023-03-05T17:58:45.520Z,11.90
2023-03-05T18:01:36.668Z,11.57
2023-03-05T18:04:26.421Z,11.43
2023-03-05T18:07:15.135Z,11.77
2023-03-05T18:10:06.883Z,14.67
2023-03-05T18:13:03.768Z,15.33
2023-03-05T18:15:53.353Z,18.27
2023-03-05T18:18:44.265Z,17.20
2023-03-05T18:21:36.187Z,14.67
2023-03-05T18:24:25.314Z,14.83
2023-03-05T18:27:14.099Z,13.40
2023-03-05T18:30:03.833Z,16.00
2023-03-05T18:32:52.731Z,14.67
2023-03-05T18:35:44.233Z,11.40
2023-03-05T18:38:33.916Z,11.63
2023-03-05T18:41:27.655Z,10.97
2023-03-05T18:44:19.746Z,10.10
2023-03-05T18:47:09.280Z,10.97
2023-03-05T18:49:59.433Z,10.47
2023-03-05T18:52:50.066Z,11.40
2023-03-05T18:55:38.773Z,11.00
2023-03-05T18:58:28.233Z,13.90
2023-03-05T19:01:18.135Z,11.90
2023-03-05T19:04:07.759Z,11.20
2023-03-05T19:06:56.786Z,12.37
2023-03-05T19:09:58.967Z,12.13
2023-03-05T19:12:50.986Z,11.70
2023-03-05T19:15:41.791Z,12.17
2023-03-05T19:18:33.724Z,12.93
2023-03-05T19:21:22.923Z,15.20
2023-03-05T19:24:12.510Z,17.03
2023-03-05T19:27:10.125Z,19.37
2023-03-05T19:30:00.100Z,13.60
2023-03-05T19:32:49.686Z,12.30
2023-03-05T19:35:38.852Z,12.63
2023-03-05T19:38:28.057Z,10.70
2023-03-05T19:41:17.991Z,22.43
2023-03-05T19:44:09.300Z,18.20
2023-03-05T19:46:58.008Z,16.63
2023-03-05T19:49:47.961Z,17.13
2023-03-05T19:52:39.173Z,14.77
2023-03-05T19:55:28.158Z,13.87
2023-03-05T19:58:17.465Z,13.87
2023-03-05T20:01:13.784Z,14.43
2023-03-05T20:04:04.103Z,13.90
2023-03-05T20:06:59.198Z,13.73
2023-03-05T20:09:50.648Z,14.70
2023-03-05T20:12:39.394Z,18.67
2023-03-05T20:15:29.731Z,18.03
2023-03-05T20:18:19.901Z,22.50
2023-03-05T20:21:09.930Z,16.57
2023-03-05T20:24:00.656Z,14.43
2023-03-05T20:26:51.453Z,16.20
2023-03-05T20:29:40.184Z,15.97
2023-03-05T20:32:29.872Z,15.63
2023-03-05T20:35:19.973Z,13.60
2023-03-05T20:38:20.803Z,13.27
2023-03-05T20:41:12.212Z,14.23
2023-03-05T20:44:06.327Z,14.70
2023-03-05T20:47:13.051Z,13.53
2023-03-05T20:50:01.931Z,14.50
2023-03-05T20:52:52.807Z,14.80
2023-03-05T20:55:41.649Z,13.57
2023-03-05T20:58:31.269Z,13.90
2023-03-05T21:01:20.286Z,13.80
2023-03-05T21:04:09.342Z,13.90
2023-03-05T21:06:58.134Z,13.63
2023-03-05T21:09:48.614Z,15.57
2023-03-05T21:12:37.249Z,17.43
2023-03-05T21:15:27.829Z,15.80
2023-03-05T21:18:16.438Z,14.67
2023-03-05T21:21:07.384Z,15.67
2023-03-05T21:23:56.061Z,18.03
2023-03-05T21:26:46.944Z,16.23
2023-03-05T21:29:35.613Z,14.37
2023-03-05T21:32:25.091Z,15.53
2023-03-05T21:35:17.988Z,15.77
2023-03-05T21:38:08.930Z,16.20
2023-03-05T21:40:59.693Z,20.73
2023-03-05T21:43:50.480Z,15.83
2023-03-05T21:46:42.702Z,16.17
2023-03-05T21:49:32.338Z,13.80
2023-03-05T21:52:22.462Z,13.10
2023-03-05T21:55:14.216Z,13.40
2023-03-05T21:58:03.812Z,13.57
2023-03-05T22:00:55.350Z,14.93
2023-03-05T22:03:44.092Z,15.47
2023-03-05T22:06:33.136Z,14.57
2023-03-05T22:09:21.740Z,15.33
2023-03-05T22:12:15.513Z,15.67
2023-03-05T22:15:04.494Z,14.80
2023-03-05T22:17:55.893Z,13.27
2023-03-05T22:20:44.949Z,14.13
2023-03-05T22:23:35.501Z,13.43
2023-03-05T22:26:24.992Z,13.47
2023-03-05T22:29:15.277Z,13.00
2023-03-05T22:32:03.959Z,13.90
2023-03-05T22:34:57.948Z,13.50
2023-03-05T22:37:47.938Z,14.50
2023-03-05T22:40:37.469Z,14.37
2023-03-05T22:43:26.566Z,14.73
2023-03-05T22:46:17.330Z,14.70
2023-03-05T22:49:07.617Z,15.53
2023-03-05T22:51:57.693Z,19.13
2023-03-05T22:54:48.045Z,17.33
2023-03-05T22:57:36.738Z,15.20
2023-03-05T23:00:27.156Z,16.53
2023-03-05T23:03:16.548Z,17.00
2023-03-05T23:06:06.340Z,15.40
2023-03-05T23:08:57.600Z,14.90
2023-03-05T23:11:46.193Z,13.10
2023-03-05T23:14:35.253Z,14.43
2023-03-05T23:17:23.936Z,14.50
2023-03-05T23:20:17.129Z,15.10
2023-03-05T23:23:05.815Z,15.27
2023-03-05T23:25:57.267Z,15.83
2023-03-05T23:28:46.313Z,15.77
2023-03-05T23:31:35.254Z,15.30
2023-03-05T23:34:24.324Z,16.33
2023-03-05T23:37:13.178Z,16.00
2023-03-05T23:40:03.947Z,15.73
2023-03-05T23:42:54.413Z,14.33
2023-03-05T23:45:45.267Z,16.37
2023-03-05T23:48:34.849Z,16.80
2023-03-05T23:51:24.066Z,16.97
2023-03-05T23:54:12.702Z,18.47
2023-03-05T23:57:01.956Z,18.27
2023-03-05T23:59:52.410Z,17.30
